Alba, Pennsylvania
Current Conditions -  °F | °C
As of 2:55 PM on Thursday 30 Oct 2014 (Local Time) from KN38 Reporting Station
Overcast Overcast  
Wind Chill: 40°   Ceiling: 3400
Heat Index: 45°   Visibility: 10mi
Dew Point: 32°   Wind: 8mph
Humidity: 61%   Direction: 360°N
Pressure: 30.02"   Gusts: NA
Location:  41.71°N, 76.83°W
Report Text: KN38 301855Z AUTO 36007KT 10SM OVC034 07/00 A3002 RMK AO2
Loading
Personal Weather Stations






























Interactive Weather Map New forecast layout! Learn more

10-Day Weather Forecast

Advertisements
Track Severe Weather on mobile